Time;durP1;ratioP1;P1;durP2;ratioP2;P2;SDS_P1;SDS_P2;PMS_P1;PMS_P2;Temp;Humidity;BMP_temperature;BMP_pressure;BME280_temperature;BME280_humidity;BME280_pressure;Samples;Min_cycle;Max_cycle;Signal;HPM_P1;HPM_P2
2022/07/07 00:00:31;;;;;;;3.25;1.13;;;;;;;15.61;41.31;101242.19;5092130;28;20518;-64
2022/07/07 00:02:58;;;;;;;4.05;1.00;;;;;;;15.57;41.56;101244.41;5092324;28;20067;-64
2022/07/07 00:05:25;;;;;;;3.67;0.90;;;;;;;15.48;41.45;101237.38;5092217;28;20089;-64
2022/07/07 00:07:51;;;;;;;3.20;1.08;;;;;;;15.42;41.46;101230.78;5092913;28;20406;-64
2022/07/07 00:10:18;;;;;;;6.82;0.98;;;;;;;15.43;41.72;101227.09;5092915;28;20050;-65
2022/07/07 00:12:45;;;;;;;4.32;1.08;;;;;;;15.32;41.76;101213.97;5092595;28;20074;-65
2022/07/07 00:15:11;;;;;;;5.68;1.48;;;;;;;15.35;41.80;101216.31;5092377;28;20101;-64
2022/07/07 00:17:38;;;;;;;3.35;1.00;;;;;;;15.37;41.54;101213.44;5093030;28;20052;-65
2022/07/07 00:20:06;;;;;;;6.30;1.20;;;;;;;15.54;41.78;101209.59;5092006;28;20054;-65
2022/07/07 00:22:32;;;;;;;11.82;1.20;;;;;;;15.49;41.62;101209.28;5092836;28;20131;-64
2022/07/07 00:24:59;;;;;;;1.98;0.90;;;;;;;15.69;41.24;101207.81;5091532;28;20135;-65
2022/07/07 00:27:25;;;;;;;2.90;1.00;;;;;;;15.60;41.21;101208.00;5091427;28;20122;-65
2022/07/07 00:29:52;;;;;;;5.00;1.38;;;;;;;15.58;41.24;101204.69;5091748;28;20154;-65
2022/07/07 00:32:19;;;;;;;3.53;1.27;;;;;;;15.51;41.68;101201.00;5092201;28;20464;-65
2022/07/07 00:34:45;;;;;;;4.15;0.98;;;;;;;15.61;41.47;101197.03;5092655;28;20140;-65
2022/07/07 00:37:12;;;;;;;2.72;1.00;;;;;;;15.67;41.53;101190.94;5090970;28;20402;-65
2022/07/07 00:39:38;;;;;;;4.80;1.20;;;;;;;15.65;41.68;101190.25;5091888;28;20764;-65
2022/07/07 00:42:05;;;;;;;7.75;1.15;;;;;;;15.63;41.66;101192.31;5091023;28;20508;-65
2022/07/07 00:44:31;;;;;;;3.72;1.00;;;;;;;15.48;41.91;101183.28;5091791;28;20531;-65
2022/07/07 00:46:58;;;;;;;4.47;1.08;;;;;;;15.57;41.73;101201.13;5091941;28;20058;-65
2022/07/07 00:49:25;;;;;;;6.57;1.35;;;;;;;15.66;41.60;101183.81;5091691;28;20047;-65
2022/07/07 00:51:51;;;;;;;4.60;0.77;;;;;;;15.69;41.71;101193.44;5091802;28;20112;-65
2022/07/07 00:54:19;;;;;;;8.50;1.20;;;;;;;15.73;41.57;101193.91;5092311;28;20127;-65
2022/07/07 00:56:46;;;;;;;4.82;0.90;;;;;;;15.71;41.72;101188.72;5090268;28;20504;-65
2022/07/07 00:59:30;;;;;;;7.00;1.10;;;;;;;15.68;41.81;101189.91;5091058;28;20555;-65
2022/07/07 01:01:59;;;;;;;4.95;0.70;;;;;;;15.77;41.69;101195.22;5091537;28;20048;-65
2022/07/07 01:04:26;;;;;;;7.55;1.00;;;;;;;15.73;41.77;101191.22;5090191;28;20044;-65
2022/07/07 01:07:23;;;;;;;3.33;0.90;;;;;;;15.80;41.80;101190.28;5092493;28;20052;-65
2022/07/07 01:09:50;;;;;;;2.92;0.80;;;;;;;15.82;42.23;101195.53;5091472;28;20092;-65
2022/07/07 01:12:17;;;;;;;5.45;1.13;;;;;;;15.88;42.31;101194.78;5090510;28;20127;-65
2022/07/07 01:14:43;;;;;;;8.77;1.10;;;;;;;15.86;43.50;101188.72;5090009;28;20138;-65
2022/07/07 01:17:10;;;;;;;15.57;1.33;;;;;;;15.85;44.49;101187.91;5090305;28;20097;-66
2022/07/07 01:19:36;;;;;;;4.55;0.95;;;;;;;15.85;44.92;101190.59;5089850;28;20126;-65
2022/07/07 01:22:23;;;;;;;5.68;0.93;;;;;;;15.90;45.26;101190.03;5089753;28;20072;-65
2022/07/07 01:24:50;;;;;;;6.78;1.20;;;;;;;15.91;45.59;101187.13;5089849;28;20131;-65
2022/07/07 01:27:19;;;;;;;6.57;1.40;;;;;;;15.93;45.52;101176.97;5082951;28;20067;-65
2022/07/07 01:29:49;;;;;;;3.97;0.88;;;;;;;15.82;46.92;101188.25;5088282;28;20044;-65
2022/07/07 01:32:17;;;;;;;2.70;0.77;;;;;;;15.79;47.62;101176.97;5090390;28;20573;-65
2022/07/07 01:34:45;;;;;;;9.45;1.55;;;;;;;15.65;48.32;101176.75;5090891;28;20082;-65
2022/07/07 01:37:12;;;;;;;6.85;0.98;;;;;;;15.62;48.62;101177.06;5088341;28;20086;-65
2022/07/07 01:39:40;;;;;;;4.38;1.00;;;;;;;15.62;49.22;101179.78;5088090;28;20131;-65
2022/07/07 01:42:08;;;;;;;7.43;1.15;;;;;;;15.61;49.81;101178.09;5090674;28;20056;-65
2022/07/07 01:44:38;;;;;;;4.70;0.70;;;;;;;15.56;50.46;101180.50;5080028;28;20134;-65
2022/07/07 01:47:06;;;;;;;7.13;0.97;;;;;;;15.47;51.24;101170.78;5088870;28;20072;-65
2022/07/07 01:49:33;;;;;;;4.72;0.80;;;;;;;15.50;51.23;101175.84;5090196;28;20083;-65
2022/07/07 01:52:01;;;;;;;3.10;1.10;;;;;;;15.38;51.95;101167.28;5085881;28;20050;-65
2022/07/07 01:54:28;;;;;;;8.38;0.95;;;;;;;15.27;52.70;101170.44;5090579;28;20044;-65
2022/07/07 01:56:55;;;;;;;5.65;0.98;;;;;;;15.25;53.01;101164.34;5089974;28;20127;-65
2022/07/07 01:59:22;;;;;;;4.00;0.70;;;;;;;15.23;53.34;101167.25;5089819;28;20044;-65
2022/07/07 02:01:49;;;;;;;6.47;1.40;;;;;;;15.30;53.37;101169.25;5090209;28;20132;-65
2022/07/07 02:04:16;;;;;;;2.47;0.98;;;;;;;15.26;53.84;101168.75;5089572;28;20089;-65
2022/07/07 02:06:43;;;;;;;4.70;1.02;;;;;;;15.13;54.38;101169.34;5090290;28;20052;-65
2022/07/07 02:09:10;;;;;;;7.07;1.35;;;;;;;15.16;54.88;101163.59;5092827;28;20075;-65
2022/07/07 02:11:36;;;;;;;5.03;0.95;;;;;;;15.07;55.63;101164.66;5093439;28;20173;-65
2022/07/07 02:14:04;;;;;;;4.28;0.95;;;;;;;15.07;56.25;101163.81;5092781;28;20102;-65
2022/07/07 02:16:31;;;;;;;5.85;0.90;;;;;;;15.00;56.30;101160.97;5094961;28;20480;-65
2022/07/07 02:19:00;;;;;;;5.57;1.10;;;;;;;15.01;56.83;101154.56;5094275;28;20047;-65
2022/07/07 02:21:27;;;;;;;6.25;1.63;;;;;;;14.98;57.30;101155.78;5092680;28;20075;-65
2022/07/07 02:23:54;;;;;;;8.45;1.23;;;;;;;14.99;57.41;101152.03;5093275;28;20056;-65
2022/07/07 02:26:21;;;;;;;4.40;1.30;;;;;;;14.99;57.61;101151.22;5093531;28;20048;-65
2022/07/07 02:28:48;;;;;;;7.15;1.33;;;;;;;14.97;57.76;101145.13;5093827;28;20046;-65
2022/07/07 02:31:15;;;;;;;4.60;1.30;;;;;;;14.85;58.30;101139.31;5093980;28;20119;-65
2022/07/07 02:33:42;;;;;;;9.85;1.65;;;;;;;14.84;58.63;101144.88;5092505;28;20510;-66
2022/07/07 02:36:09;;;;;;;12.15;1.25;;;;;;;14.75;58.72;101139.53;5094268;28;20060;-65
2022/07/07 02:38:37;;;;;;;6.55;1.27;;;;;;;14.69;59.64;101139.34;5092109;28;20131;-65
2022/07/07 02:41:05;;;;;;;9.35;1.90;;;;;;;14.58;60.41;101137.06;5088503;28;20448;-65
2022/07/07 02:43:32;;;;;;;6.40;1.65;;;;;;;14.36;61.41;101134.13;5092769;28;20044;-65
2022/07/07 02:45:59;;;;;;;6.05;1.58;;;;;;;14.30;61.60;101130.25;5093945;28;20466;-65
2022/07/07 02:48:26;;;;;;;5.20;1.23;;;;;;;14.16;62.19;101124.75;5094798;28;20040;-65
2022/07/07 02:50:53;;;;;;;6.30;1.67;;;;;;;14.11;62.20;101130.66;5094688;28;20064;-65
2022/07/07 02:53:21;;;;;;;2.97;1.50;;;;;;;14.06;62.89;101124.94;5092652;28;20059;-65
2022/07/07 02:55:48;;;;;;;6.03;1.35;;;;;;;14.13;62.99;101134.03;5093025;28;20392;-65
2022/07/07 02:58:22;;;;;;;3.70;1.23;;;;;;;14.24;63.01;101120.16;5091151;28;20450;-65
2022/07/07 03:00:54;;;;;;;12.02;1.73;;;;;;;13.91;64.21;101127.53;5094291;28;20066;-65
2022/07/07 03:03:21;;;;;;;9.32;1.85;;;;;;;13.89;64.42;101123.31;5093287;28;20044;-65
2022/07/07 03:05:48;;;;;;;4.75;1.42;;;;;;;14.04;64.25;101113.47;5093869;28;20436;-65
2022/07/07 03:08:14;;;;;;;2.60;1.33;;;;;;;13.85;64.76;101108.50;5093949;28;20078;-65
2022/07/07 03:10:41;;;;;;;4.55;1.25;;;;;;;13.75;65.25;101100.56;5094260;28;20048;-65
2022/07/07 03:13:08;;;;;;;6.53;1.38;;;;;;;13.68;65.21;101108.50;5094354;28;20123;-65
2022/07/07 03:15:35;;;;;;;4.55;1.58;;;;;;;13.18;66.50;101100.59;5094228;28;20491;-64
2022/07/07 03:18:01;;;;;;;5.78;1.60;;;;;;;13.37;66.68;101099.44;5093851;28;20055;-64
2022/07/07 03:20:28;;;;;;;6.60;1.45;;;;;;;13.44;66.98;101100.44;5093565;28;20048;-64
2022/07/07 03:22:55;;;;;;;2.85;1.52;;;;;;;13.03;67.62;101092.34;5094737;28;20064;-65
2022/07/07 03:25:21;;;;;;;4.75;1.63;;;;;;;13.29;66.87;101093.03;5093892;28;20067;-65
2022/07/07 03:27:48;;;;;;;5.93;1.52;;;;;;;13.17;67.18;101085.44;5093692;28;20067;-65
2022/07/07 03:30:14;;;;;;;5.55;1.60;;;;;;;12.71;68.16;101077.81;5093646;28;20040;-65
2022/07/07 03:32:41;;;;;;;2.25;1.40;;;;;;;13.00;67.77;101076.53;5094264;28;20101;-65
2022/07/07 03:35:08;;;;;;;5.57;1.88;;;;;;;12.87;67.70;101072.50;5094461;28;20094;-65
2022/07/07 03:37:36;;;;;;;3.35;1.42;;;;;;;12.90;68.42;101075.84;5093944;28;20048;-64
2022/07/07 03:40:04;;;;;;;6.28;1.67;;;;;;;13.06;67.22;101078.56;5093594;28;20545;-65
2022/07/07 03:42:31;;;;;;;9.82;2.08;;;;;;;12.87;67.89;101067.09;5093114;28;20040;-65
2022/07/07 03:44:58;;;;;;;4.03;1.75;;;;;;;13.18;67.38;101076.34;5093206;28;20131;-64
2022/07/07 03:47:24;;;;;;;3.97;1.80;;;;;;;12.96;68.22;101070.63;5093071;28;20048;-65
2022/07/07 03:49:51;;;;;;;3.42;1.77;;;;;;;12.84;67.90;101078.19;5092969;28;20040;-64
2022/07/07 03:52:18;;;;;;;3.65;1.45;;;;;;;13.34;67.04;101085.28;5092613;28;20373;-64
2022/07/07 03:54:44;;;;;;;8.77;1.60;;;;;;;13.33;67.11;101080.91;5092570;28;20498;-64
2022/07/07 03:57:11;;;;;;;2.95;1.50;;;;;;;13.17;67.63;101072.81;5093092;28;20071;-64
2022/07/07 03:59:37;;;;;;;7.78;2.05;;;;;;;13.20;68.02;101071.66;5092689;28;20095;-64
2022/07/07 04:02:04;;;;;;;8.15;1.95;;;;;;;13.38;67.70;101076.84;5092717;28;20044;-64
2022/07/07 04:04:31;;;;;;;7.28;1.52;;;;;;;13.31;67.64;101068.59;5090165;28;20101;-64
2022/07/07 04:06:58;;;;;;;5.57;1.92;;;;;;;13.15;67.90;101058.69;5093881;28;20062;-64
2022/07/07 04:09:24;;;;;;;4.90;1.98;;;;;;;12.99;68.46;101069.47;5093200;28;20040;-64
2022/07/07 04:11:51;;;;;;;3.28;1.92;;;;;;;13.17;68.00;101064.75;5092082;28;20044;-64
2022/07/07 04:14:17;;;;;;;8.15;2.03;;;;;;;13.02;69.40;101058.34;5091790;28;20067;-64
2022/07/07 04:16:44;;;;;;;6.00;2.10;;;;;;;13.29;68.01;101063.41;5092615;28;20115;-64
2022/07/07 04:19:10;;;;;;;4.78;1.80;;;;;;;12.68;70.15;101051.22;5091691;28;20067;-64
2022/07/07 04:21:37;;;;;;;8.00;2.30;;;;;;;12.79;70.17;101045.53;5092403;28;20484;-64
2022/07/07 04:24:04;;;;;;;7.15;1.67;;;;;;;13.05;69.94;101047.25;5091942;28;20135;-64
2022/07/07 04:26:30;;;;;;;6.63;2.30;;;;;;;12.91;70.27;101035.28;5091230;28;20066;-64
2022/07/07 04:28:57;;;;;;;10.45;3.05;;;;;;;12.68;70.93;101037.75;5093395;28;20040;-64
2022/07/07 04:31:23;;;;;;;7.35;2.40;;;;;;;12.80;71.20;101035.59;5092232;28;20135;-64
2022/07/07 04:33:50;;;;;;;8.43;3.22;;;;;;;13.15;70.41;101034.44;5091183;28;20118;-64
2022/07/07 04:36:16;;;;;;;5.45;2.08;;;;;;;13.08;70.03;101031.59;5092975;28;20464;-64
2022/07/07 04:38:43;;;;;;;5.38;2.17;;;;;;;13.12;69.95;101024.00;5091419;28;20048;-64
2022/07/07 04:41:09;;;;;;;6.78;2.42;;;;;;;13.08;69.90;101020.81;5091885;28;20072;-64
2022/07/07 04:43:36;;;;;;;4.65;2.10;;;;;;;13.13;69.63;101011.38;5091045;28;20538;-64
2022/07/07 04:46:03;;;;;;;6.72;2.22;;;;;;;12.96;70.22;101013.25;5092360;28;20132;-64
2022/07/07 04:48:29;;;;;;;8.15;2.80;;;;;;;13.30;70.07;101013.03;5091609;28;20067;-63
2022/07/07 04:50:56;;;;;;;5.20;2.80;;;;;;;13.17;69.62;101015.41;5092414;28;20471;-63
2022/07/07 04:53:22;;;;;;;7.25;2.08;;;;;;;13.12;70.53;101013.25;5092412;28;20353;-63
2022/07/07 04:55:49;;;;;;;7.05;2.40;;;;;;;13.16;70.38;101005.66;5092072;28;20109;-63
2022/07/07 04:58:16;;;;;;;2.72;2.28;;;;;;;13.19;69.89;101003.47;5091365;28;20072;-65
2022/07/07 05:00:42;;;;;;;3.72;2.05;;;;;;;13.02;70.82;101002.63;5091128;28;20068;-63
2022/07/07 05:03:09;;;;;;;9.73;2.65;;;;;;;13.23;70.23;101002.09;5091055;28;20063;-63
2022/07/07 05:05:35;;;;;;;7.38;2.78;;;;;;;13.24;70.31;100990.31;5085878;28;20068;-63
2022/07/07 05:08:02;;;;;;;5.78;3.33;;;;;;;13.40;69.64;100986.75;5091649;28;20128;-63
2022/07/07 05:10:28;;;;;;;5.85;2.40;;;;;;;13.04;70.91;100997.06;5092271;28;20082;-63
2022/07/07 05:12:55;;;;;;;5.25;2.28;;;;;;;13.31;70.34;100982.38;5090428;28;20135;-63
2022/07/07 05:15:21;;;;;;;3.40;2.10;;;;;;;13.15;70.96;100985.97;5091120;28;20054;-63
2022/07/07 05:17:48;;;;;;;4.70;1.92;;;;;;;13.33;69.59;100996.53;5091442;28;20462;-63
2022/07/07 05:20:19;;;;;;;4.70;2.22;;;;;;;13.45;70.25;100992.44;5086971;28;20050;-63
2022/07/07 05:22:45;;;;;;;5.32;2.38;;;;;;;13.35;70.66;100991.78;5091280;28;20492;-63
2022/07/07 05:25:12;;;;;;;7.13;2.80;;;;;;;13.45;70.49;100988.91;5091167;28;20161;-63
2022/07/07 05:27:38;;;;;;;9.75;3.95;;;;;;;13.46;70.29;100990.63;5090734;28;20499;-63
2022/07/07 05:30:06;;;;;;;8.52;4.35;;;;;;;13.20;71.70;100977.34;5090793;28;20134;-63
2022/07/07 05:32:33;;;;;;;5.72;3.00;;;;;;;13.21;71.06;100977.16;5091474;28;20508;-63
2022/07/07 05:34:59;;;;;;;7.05;2.58;;;;;;;13.38;70.49;100990.63;5091623;28;20446;-63
2022/07/07 05:37:26;;;;;;;5.15;2.30;;;;;;;13.44;70.97;100982.69;5091366;28;20126;-63
2022/07/07 05:39:52;;;;;;;5.32;2.63;;;;;;;13.16;71.68;100984.94;5091417;28;20456;-63
2022/07/07 05:42:19;;;;;;;6.95;3.17;;;;;;;13.25;71.52;100980.38;5090420;28;20087;-63
2022/07/07 05:44:45;;;;;;;4.78;2.28;;;;;;;13.09;72.25;100981.25;5069390;28;20131;-63
2022/07/07 05:47:12;;;;;;;5.85;2.50;;;;;;;13.05;72.35;100978.06;5088959;28;20134;-63
2022/07/07 05:49:38;;;;;;;7.80;3.13;;;;;;;13.29;71.54;100979.88;5090800;28;20067;-63
2022/07/07 05:52:05;;;;;;;5.18;3.17;;;;;;;13.13;72.16;100979.06;5091400;28;20072;-63
2022/07/07 05:54:32;;;;;;;9.45;3.10;;;;;;;13.23;71.72;100985.94;5090386;28;20139;-63
2022/07/07 05:56:58;;;;;;;6.90;4.10;;;;;;;13.46;70.92;100990.63;5090028;28;20047;-63
2022/07/07 05:59:25;;;;;;;9.15;3.83;;;;;;;13.53;70.45;100992.44;5090238;28;20131;-63
2022/07/07 06:01:54;;;;;;;7.50;3.10;;;;;;;13.86;68.78;100988.81;5091050;28;20051;-63
2022/07/07 06:04:20;;;;;;;5.88;3.22;;;;;;;13.85;69.43;100995.22;5090292;28;20048;-63
2022/07/07 06:06:47;;;;;;;6.72;3.85;;;;;;;13.65;70.23;100981.28;5091274;28;20052;-63
2022/07/07 06:09:13;;;;;;;6.38;4.03;;;;;;;13.45;70.99;100984.34;5090463;28;20069;-64
2022/07/07 06:11:40;;;;;;;6.45;3.42;;;;;;;13.69;69.67;100991.53;5090583;28;20127;-63
2022/07/07 06:14:07;;;;;;;11.27;3.38;;;;;;;13.63;70.05;100991.38;5090312;28;20042;-65
2022/07/07 06:16:40;;;;;;;7.50;4.00;;;;;;;13.29;70.60;100984.44;5063374;28;20054;-64
2022/07/07 06:19:12;;;;;;;6.00;3.75;;;;;;;13.56;70.62;100985.84;5091645;28;20105;-64
2022/07/07 06:21:40;;;;;;;;;;;;;;;13.48;70.54;100984.00;5092067;28;20055;-64
2022/07/07 06:24:07;;;;;;;6.03;3.60;;;;;;;13.61;70.20;100977.25;5091733;28;19973;-64
2022/07/07 06:26:34;;;;;;;8.98;3.88;;;;;;;13.39;71.18;100976.13;5091521;28;20048;-64
2022/07/07 06:29:01;;;;;;;4.25;3.30;;;;;;;13.59;70.21;100974.72;5092257;28;20119;-64
2022/07/07 06:31:27;;;;;;;8.45;5.78;;;;;;;13.65;70.41;100971.31;5091619;28;20392;-64
2022/07/07 06:33:54;;;;;;;6.75;5.05;;;;;;;13.71;70.68;100965.25;5091203;28;20062;-64
2022/07/07 06:36:20;;;;;;;7.70;4.30;;;;;;;13.73;70.29;100960.50;5091537;28;20123;-64
2022/07/07 06:38:47;;;;;;;6.70;3.40;;;;;;;13.53;71.49;100962.78;5091570;28;20102;-64
2022/07/07 06:41:14;;;;;;;6.53;3.90;;;;;;;13.09;72.31;100957.00;5091581;28;20066;-65
2022/07/07 06:43:41;;;;;;;9.07;3.85;;;;;;;13.50;71.45;100963.13;5091407;28;20063;-65
2022/07/07 06:46:07;;;;;;;6.22;3.50;;;;;;;13.69;71.07;100955.66;5091259;28;20131;-64
2022/07/07 06:48:34;;;;;;;6.35;4.25;;;;;;;13.79;70.74;100959.84;5091818;28;20149;-64
2022/07/07 06:51:00;;;;;;;5.53;3.40;;;;;;;13.91;69.99;100963.00;5091527;28;20124;-64
2022/07/07 06:53:27;;;;;;;6.78;4.10;;;;;;;13.43;71.75;100961.31;5091753;28;20524;-65
2022/07/07 06:55:54;;;;;;;5.97;3.30;;;;;;;13.77;70.59;100961.88;5095202;28;20098;-64
2022/07/07 06:58:20;;;;;;;5.95;3.55;;;;;;;14.13;69.41;100972.16;5094610;28;20048;-64
2022/07/07 07:00:47;;;;;;;6.30;4.05;;;;;;;14.16;69.05;100969.09;5094864;28;20130;-64
2022/07/07 07:03:13;;;;;;;9.07;3.65;;;;;;;14.17;68.99;100965.38;5093897;28;20127;-68
2022/07/07 07:05:40;;;;;;;8.60;3.70;;;;;;;13.82;70.85;100964.06;5094733;28;20399;-68
2022/07/07 07:08:07;;;;;;;7.57;3.33;;;;;;;13.90;71.04;100964.00;5094570;28;20213;-68
2022/07/07 07:10:33;;;;;;;7.07;3.05;;;;;;;13.81;71.27;100960.50;5076940;28;20119;-68
2022/07/07 07:13:01;;;;;;;9.65;4.00;;;;;;;13.79;72.20;100965.22;5092099;28;20457;-68
2022/07/07 07:15:28;;;;;;;5.68;3.83;;;;;;;13.67;72.32;100961.22;5091984;28;20076;-68
2022/07/07 07:17:54;;;;;;;4.90;3.03;;;;;;;13.86;72.05;100957.28;5094515;28;20064;-68
2022/07/07 07:20:21;;;;;;;6.70;4.65;;;;;;;14.01;71.45;100962.75;5094905;28;20063;-68
2022/07/07 07:22:48;;;;;;;6.93;3.35;;;;;;;13.81;71.83;100957.81;5094424;28;20135;-68
2022/07/07 07:25:16;;;;;;;3.80;3.00;;;;;;;13.67;72.43;100965.78;5093823;28;20131;-68
2022/07/07 07:27:42;;;;;;;4.75;3.10;;;;;;;13.52;72.70;100953.00;5092249;28;20093;-68
2022/07/07 07:30:09;;;;;;;4.85;2.63;;;;;;;13.31;73.98;100948.19;5093880;28;20127;-69
2022/07/07 07:32:36;;;;;;;3.70;2.60;;;;;;;13.46;72.72;100953.72;5091792;28;20102;-69
2022/07/07 07:35:03;;;;;;;6.00;3.00;;;;;;;13.57;72.60;100955.19;5092615;28;20048;-68
2022/07/07 07:37:29;;;;;;;8.60;5.35;;;;;;;13.75;72.25;100949.56;5094113;28;20455;-68
2022/07/07 07:39:56;;;;;;;3.42;2.83;;;;;;;13.70;72.40;100947.41;5093775;28;20075;-68
2022/07/07 07:42:23;;;;;;;3.95;2.90;;;;;;;13.89;72.39;100953.41;5094166;28;20071;-68
2022/07/07 07:47:34;;;;;;;5.28;3.00;;;;;;;13.95;72.31;100952.69;5091010;28;20559;-69
2022/07/07 07:50:01;;;;;;;3.50;2.65;;;;;;;14.03;71.60;100947.25;5093812;28;20044;-67
2022/07/07 07:52:28;;;;;;;4.55;2.80;;;;;;;13.75;72.54;100953.09;5093567;28;20131;-68
2022/07/07 07:54:54;;;;;;;4.22;3.17;;;;;;;14.09;71.76;100948.41;5093758;28;20076;-68
2022/07/07 07:57:21;;;;;;;5.38;3.47;;;;;;;14.10;72.30;100939.28;5093626;28;20044;-68
2022/07/07 07:59:48;;;;;;;3.15;2.80;;;;;;;14.04;71.49;100944.38;5093610;28;20070;-69
2022/07/07 08:02:14;;;;;;;6.05;2.55;;;;;;;14.12;71.82;100943.50;5093856;28;20456;-69
2022/07/07 08:04:41;;;;;;;3.20;2.35;;;;;;;14.32;70.82;100945.72;5093750;28;20472;-68
2022/07/07 08:07:08;;;;;;;7.35;4.70;;;;;;;14.46;71.21;100939.53;5092815;28;20469;-69
2022/07/07 08:09:35;;;;;;;3.72;2.95;;;;;;;13.95;72.40;100942.75;5094213;28;20123;-69
2022/07/07 08:12:01;;;;;;;3.88;2.80;;;;;;;14.03;72.22;100944.56;5093341;28;20067;-70
2022/07/07 08:14:28;;;;;;;2.58;2.35;;;;;;;14.24;71.63;100947.44;5093776;28;20064;-68
2022/07/07 08:16:54;;;;;;;3.25;2.35;;;;;;;14.17;71.42;100946.50;5093357;28;20411;-69
2022/07/07 08:19:21;;;;;;;5.32;2.47;;;;;;;13.92;72.92;100944.97;5093886;28;20475;-68
2022/07/07 08:21:48;;;;;;;4.45;2.65;;;;;;;13.84;73.40;100945.84;5093612;28;20101;-67
2022/07/07 08:24:14;;;;;;;2.85;2.47;;;;;;;14.13;72.08;100944.34;5093428;28;20079;-68
2022/07/07 08:26:41;;;;;;;4.70;2.70;;;;;;;14.04;72.72;100943.53;5092850;28;20568;-69
2022/07/07 08:29:08;;;;;;;4.65;3.17;;;;;;;14.43;71.41;100945.31;5093101;28;20044;-69
2022/07/07 08:31:34;;;;;;;4.03;2.70;;;;;;;14.00;72.89;100942.22;5093834;28;20067;-69
2022/07/07 08:34:01;;;;;;;3.33;2.70;;;;;;;14.32;71.48;100935.75;5093552;28;20480;-69
2022/07/07 08:36:30;;;;;;;3.42;2.67;;;;;;;14.58;70.80;100943.50;5093485;28;20507;-68
2022/07/07 08:39:56;;;;;;;4.78;3.25;;;;;;;-149.70;100.00;63222.41;5093187;28;20054;-68
2022/07/07 08:42:24;;;;;;;2.70;2.30;;;;;;;14.33;71.01;100942.00;5093017;28;20071;-68
2022/07/07 08:44:51;;;;;;;4.40;3.10;;;;;;;14.03;72.77;100940.00;5093313;28;20499;-68
2022/07/07 08:47:17;;;;;;;3.20;2.10;;;;;;;14.38;71.43;100945.00;5093333;28;20131;-68
2022/07/07 08:49:44;;;;;;;2.67;2.47;;;;;;;14.31;71.97;100947.56;5075128;28;20533;-68
2022/07/07 08:52:11;;;;;;;4.07;2.45;;;;;;;14.49;71.93;100940.00;5093581;28;20472;-68
2022/07/07 08:54:39;;;;;;;3.10;2.50;;;;;;;14.36;71.36;100944.31;5093072;28;20416;-68
2022/07/07 08:57:07;;;;;;;2.42;2.13;;;;;;;14.71;70.62;100940.19;5093223;28;20067;-68
2022/07/07 08:59:34;;;;;;;3.13;1.90;;;;;;;14.80;70.63;100938.28;5092349;28;20043;-68
2022/07/07 09:02:09;;;;;;;2.53;2.00;;;;;;;14.76;69.90;100937.81;5092796;28;20044;-69
2022/07/07 09:04:35;;;;;;;2.20;1.88;;;;;;;14.66;71.05;100940.72;5091692;28;20468;-69
2022/07/07 09:07:04;;;;;;;3.80;2.30;;;;;;;14.45;71.50;100937.84;5092555;28;20541;-68
2022/07/07 09:09:43;;;;;;;3.25;2.00;;;;;;;14.90;70.42;100937.00;5092135;28;20073;-69
2022/07/07 09:12:12;;;;;;;3.67;2.50;;;;;;;14.86;70.30;100932.16;5092375;28;20059;-69
2022/07/07 09:14:47;;;;;;;9.73;2.88;;;;;;;15.01;70.21;100925.72;5092530;28;20075;-69
2022/07/07 09:17:28;;;;;;;3.42;2.20;;;;;;;15.12;70.25;100929.00;5091519;28;20043;-68
2022/07/07 09:20:08;;;;;;;3.10;2.20;;;;;;;14.93;70.36;100938.50;5091954;28;20044;-69
2022/07/07 09:22:42;;;;;;;2.35;2.10;;;;;;;15.19;69.99;100936.22;5092473;28;20399;-69
2022/07/07 09:25:08;;;;;;;2.67;2.05;;;;;;;15.13;69.93;100936.94;5091621;28;20126;-68
2022/07/07 09:27:50;;;;;;;2.67;1.90;;;;;;;15.04;69.81;100937.22;5092207;28;20078;-67
2022/07/07 09:30:32;;;;;;;2.10;1.63;;;;;;;14.94;70.97;100934.75;5091218;28;20460;-68
2022/07/07 09:33:06;;;;;;;2.92;2.00;;;;;;;14.98;70.31;100936.06;5091388;28;20534;-68
2022/07/07 09:38:24;;;;;;;5.10;3.45;;;;;;;14.93;71.02;100938.50;5091416;28;20123;-69
2022/07/07 09:41:12;;;;;;;3.00;2.30;;;;;;;14.93;70.31;100941.19;5091226;28;20109;-68
2022/07/07 09:43:51;;;;;;;2.60;1.73;;;;;;;15.23;69.56;100942.91;5089755;28;20056;-68
2022/07/07 09:46:29;;;;;;;5.35;2.22;;;;;;;15.49;69.17;100938.91;5090836;28;20044;-69
2022/07/07 09:48:58;;;;;;;2.28;1.83;;;;;;;15.44;69.13;100938.63;5090780;28;20064;-67
2022/07/07 09:51:25;;;;;;;1.50;1.40;;;;;;;15.62;68.23;100943.66;5091504;28;20078;-69
2022/07/07 09:53:52;;;;;;;4.43;2.20;;;;;;;15.71;68.67;100939.84;5091059;28;20048;-68
2022/07/07 09:56:29;;;;;;;2.60;2.00;;;;;;;15.48;68.88;100937.22;5091193;28;20036;-68
2022/07/07 09:58:57;;;;;;;5.25;1.90;;;;;;;15.27;69.76;100946.09;5091238;28;20054;-68
2022/07/07 10:01:29;;;;;;;2.08;1.65;;;;;;;15.66;68.50;100940.41;5091219;28;20683;-68
2022/07/07 10:03:59;;;;;;;2.08;1.88;;;;;;;15.54;68.63;100947.31;5091289;28;20079;-68
2022/07/07 10:06:28;;;;;;;3.20;1.83;;;;;;;15.60;68.30;100946.53;5072895;28;20043;-68
2022/07/07 10:08:57;;;;;;;2.58;1.98;;;;;;;15.73;68.27;100950.47;5090959;28;20135;-68
2022/07/07 10:11:48;;;;;;;2.30;2.10;;;;;;;15.44;69.50;100944.88;5091213;28;20451;-68
2022/07/07 10:14:20;;;;;;;2.55;2.35;;;;;;;15.37;69.26;100948.53;5090485;28;20040;-68
2022/07/07 10:16:50;;;;;;;2.63;2.42;;;;;;;15.59;68.82;100952.97;5091003;28;20089;-67
2022/07/07 10:19:22;;;;;;;4.35;2.53;;;;;;;15.49;69.02;100955.13;5090824;28;20066;-68
2022/07/07 10:21:50;;;;;;;2.80;2.50;;;;;;;15.66;68.49;100953.09;5091108;28;20068;-67
2022/07/07 10:24:19;;;;;;;4.22;2.08;;;;;;;15.68;68.47;100951.06;5090968;28;20484;-69
2022/07/07 10:26:55;;;;;;;4.88;3.15;;;;;;;15.55;69.48;100956.25;5033329;28;1130393;-67
2022/07/07 10:29:41;;;;;;;2.80;2.60;;;;;;;15.74;69.11;100954.84;5093365;28;20040;-68
2022/07/07 10:32:48;;;;;;;3.50;2.92;;;;;;;15.44;70.34;100955.69;5096423;28;20080;-68
2022/07/07 10:35:17;;;;;;;3.30;3.00;;;;;;;15.82;68.86;100952.06;5093907;28;20070;-68
2022/07/07 10:37:49;;;;;;;3.72;3.42;;;;;;;15.94;68.81;100966.75;5095517;28;20040;-67
2022/07/07 10:40:21;;;;;;;3.10;2.80;;;;;;;16.02;67.85;100966.66;5094596;28;20052;-68
2022/07/07 10:43:33;;;;;;;4.30;3.25;;;;;;;15.72;69.52;100960.47;5094773;28;20144;-68
2022/07/07 10:46:08;;;;;;;3.63;3.30;;;;;;;15.92;68.85;100964.25;5080917;28;20415;-67
2022/07/07 10:48:44;;;;;;;4.22;3.42;;;;;;;15.97;68.63;100962.84;5095093;28;20454;-68
2022/07/07 10:51:21;;;;;;;3.72;3.40;;;;;;;16.09;68.25;100970.28;5094888;28;20040;-69
2022/07/07 10:53:53;;;;;;;8.63;6.07;;;;;;;16.15;68.20;100974.91;5093896;28;20070;-67
2022/07/07 10:56:20;;;;;;;5.43;4.13;;;;;;;16.21;68.09;100970.63;5094485;28;20067;-68
2022/07/07 10:58:55;;;;;;;7.95;4.30;;;;;;;15.83;69.66;100968.09;5094245;28;20395;-67
2022/07/07 11:01:24;;;;;;;6.32;4.47;;;;;;;15.76;69.93;100966.34;5094111;28;20093;-68
2022/07/07 11:03:51;;;;;;;5.95;4.35;;;;;;;15.99;69.48;100972.47;5094200;28;20151;-68
2022/07/07 11:06:18;;;;;;;5.00;4.53;;;;;;;16.02;68.74;100966.66;5094708;28;20036;-68
2022/07/07 11:09:00;;;;;;;6.55;3.90;;;;;;;16.01;69.20;100964.13;5077679;28;20131;-68
2022/07/07 11:11:27;;;;;;;4.90;4.38;;;;;;;15.93;69.60;100965.09;5094499;28;20047;-68
2022/07/07 11:14:10;;;;;;;5.78;4.68;;;;;;;16.03;69.30;100967.50;5094425;28;20109;-67
2022/07/07 11:16:39;;;;;;;5.18;4.70;;;;;;;15.83;69.97;100959.13;5094174;28;20097;-67
2022/07/07 11:19:07;;;;;;;6.85;6.25;;;;;;;16.12;68.98;100964.47;5093345;28;20101;-68
2022/07/07 11:21:44;;;;;;;10.55;5.57;;;;;;;16.15;69.08;100969.50;5094010;28;20123;-69
2022/07/07 11:24:22;;;;;;;9.13;6.00;;;;;;;16.07;69.39;100964.22;5092681;28;20127;-68
2022/07/07 11:27:14;;;;;;;5.53;4.68;;;;;;;16.12;68.82;100969.88;5093325;28;20093;-68
2022/07/07 11:29:42;;;;;;;4.93;4.35;;;;;;;16.12;68.97;100969.88;5089919;28;20067;-67
2022/07/07 11:32:09;;;;;;;7.00;4.50;;;;;;;16.45;67.69;100972.13;5093253;28;20138;-68
2022/07/07 11:34:48;;;;;;;9.13;4.90;;;;;;;16.19;69.26;100964.53;5093079;28;20131;-68
2022/07/07 11:37:20;;;;;;;5.70;5.20;;;;;;;16.05;69.71;100971.69;5093509;28;20391;-67